Smyer, Texas
Current Conditions -  °F | °C
As of 4:10 AM on Sunday 21 Dec 2014 (Local Time) from KLBB Reporting Station
Haze Haze  
Wind Chill: 36°   Ceiling: 400
Heat Index: 42°   Visibility: 5mi
Dew Point: 40°   Wind: 10mph
Humidity: 92%   Direction: 210°SSW
Pressure: 29.95"   Gusts: NA
Location:  33.58°N, 102.16°W
Report Text: KLBB 211010Z 21009KT 5SM BR BKN004 06/04 A2995 RMK AO2 T00560044
Loading
Personal Weather Stations






























Interactive Weather Map New forecast layout! Learn more

10-Day Weather Forecast

Advertisements
Track Severe Weather on mobile